Time;durP1;ratioP1;P1;durP2;ratioP2;P2;SDS_P1;SDS_P2;PMS_P1;PMS_P2;Temp;Humidity;BMP_temperature;BMP_pressure;BME280_temperature;BME280_humidity;BME280_pressure;Samples;Min_cycle;Max_cycle;Signal;HPM_P1;HPM_P2
2020/12/21 00:01:48;;;;;;;;;97.00;70.25;;;;;-1.53;85.18;102778.97;3725537;38;17932;-62
2020/12/21 00:04:18;;;;;;;;;92.25;66.50;;;;;-1.55;85.17;102762.22;3725720;37;17932;-62
2020/12/21 00:06:44;;;;;;;;;91.25;66.25;;;;;-1.59;85.29;102765.06;3725986;38;20399;-61
2020/12/21 00:09:12;;;;;;;;;92.25;72.00;;;;;-1.59;85.20;102783.66;3725783;38;17915;-62
2020/12/21 00:11:41;;;;;;;;;98.00;72.50;;;;;-1.67;85.02;102784.78;3725780;37;17894;-61
2020/12/21 00:14:09;;;;;;;;;98.50;72.50;;;;;-5.01;85.08;102226.87;3725795;37;17897;-62
2020/12/21 00:16:47;;;;;;;;;88.50;65.50;;;;;-1.67;85.26;102784.78;3726194;38;17894;-63
2020/12/21 00:19:20;;;;;;;;;94.75;70.00;;;;;-1.63;85.27;102787.31;3725891;38;17878;-62
2020/12/21 00:21:48;;;;;;;;;91.75;69.50;;;;;-1.67;85.15;102786.56;3725975;37;17904;-62
2020/12/21 00:24:15;;;;;;;;;92.50;67.75;;;;;-1.77;84.82;102790.44;3725899;37;17878;-63
2020/12/21 00:26:46;;;;;;;;;86.75;67.50;;;;;-1.85;84.90;102790.66;3725810;38;17865;-63
2020/12/21 00:29:14;;;;;;;;;95.25;68.50;;;;;-1.99;85.16;102790.25;3726001;38;17883;-63
2020/12/21 00:31:44;;;;;;;;;92.25;69.25;;;;;-2.04;85.01;102792.16;3725294;37;17860;-63
2020/12/21 00:34:12;;;;;;;;;101.25;69.00;;;;;-2.26;84.78;102761.94;3725927;38;17853;-63
2020/12/21 00:36:43;;;;;;;;;101.00;74.75;;;;;-2.18;85.14;102784.66;3725797;37;17889;-62
2020/12/21 00:39:13;;;;;;;;;103.50;72.75;;;;;-2.37;85.12;102783.47;3725862;37;17839;-62
2020/12/21 00:41:43;;;;;;;;;99.25;72.00;;;;;-2.64;85.04;102752.50;3726210;38;17865;-62
2020/12/21 00:44:14;;;;;;;;;96.00;73.00;;;;;-2.46;85.53;102779.31;3725890;38;17844;-61
2020/12/21 00:46:41;;;;;;;;;104.25;74.00;;;;;-2.40;85.12;102791.53;3725785;37;17855;-61
2020/12/21 00:49:08;;;;;;;;;92.75;65.75;;;;;-2.60;85.32;102759.47;3725589;37;17834;-61
2020/12/21 00:51:37;;;;;;;;;97.75;70.50;;;;;-2.49;85.33;102789.16;3725950;37;17849;-62
2020/12/21 00:54:07;;;;;;;;;94.75;68.00;;;;;-2.57;85.03;102784.06;3725575;38;17839;-62
2020/12/21 00:56:34;;;;;;;;;92.25;68.25;;;;;-2.60;85.54;102781.53;3726053;37;17849;-61
2020/12/21 00:59:00;;;;;;;;;95.25;70.75;;;;;-2.62;85.18;102785.16;3726236;38;17840;-61
2020/12/21 01:01:29;;;;;;;;;93.50;69.00;;;;;-2.73;85.67;102762.47;3725698;37;17841;-61
2020/12/21 01:03:59;;;;;;;;;94.00;69.50;;;;;-2.63;85.30;102781.63;3726126;37;17823;-63
2020/12/21 01:06:28;;;;;;;;;97.25;72.00;;;;;-2.84;85.29;102750.44;3728504;38;17821;-64
2020/12/21 01:08:58;;;;;;;;;91.75;67.50;;;;;-2.70;85.32;102765.03;3726875;38;17815;-62
2020/12/21 01:11:28;;;;;;;;;97.25;69.00;;;;;-2.74;85.36;102768.69;3726042;37;17830;-61
2020/12/21 01:13:56;;;;;;;;;98.25;72.75;;;;;-2.81;85.14;102767.12;3725992;37;17820;-62
2020/12/21 01:16:27;;;;;;;;;94.50;70.25;;;;;-2.84;85.35;102766.34;3725372;38;17797;-61
2020/12/21 01:18:54;;;;;;;;;97.50;70.75;;;;;-3.05;85.67;102736.88;3725439;38;17796;-62
2020/12/21 01:21:28;;;;;;;;;94.50;69.50;;;;;-2.94;85.43;102767.50;3725293;37;17821;-62
2020/12/21 01:23:57;;;;;;;;;91.25;67.50;;;;;-2.92;85.56;102760.38;3726078;37;17790;-62
2020/12/21 01:26:25;;;;;;;;;93.00;71.25;;;;;-2.85;85.65;102754.88;3725971;38;17803;-62
2020/12/21 01:28:51;;;;;;;;;87.25;63.50;;;;;-2.84;85.39;102766.34;3725879;37;17804;-62
2020/12/21 01:31:19;;;;;;;;;19.50;4.25;;;;;-3.01;85.50;102743.84;3725843;37;17779;-63
2020/12/21 01:33:49;;;;;;;;;96.00;70.25;;;;;-3.01;85.13;102765.03;3725817;37;17790;-62
2020/12/21 01:36:17;;;;;;;;;101.50;70.50;;;;;-3.19;85.36;102747.00;3725555;38;17784;-63
2020/12/21 01:38:44;;;;;;;;;82.50;64.75;;;;;-3.24;85.57;102733.03;3725878;38;17767;-63
2020/12/21 01:41:12;;;;;;;;;92.25;67.50;;;;;-3.06;85.60;102758.13;3726038;38;17775;-63
2020/12/21 01:43:39;;;;;;;;;83.50;61.25;;;;;-3.07;85.63;102759.91;3725528;38;17772;-63
2020/12/21 01:46:14;;;;;;;;;94.25;64.25;;;;;-3.08;85.50;102760.81;3725568;38;20280;-62
2020/12/21 01:48:43;;;;;;;;;89.75;64.25;;;;;-3.09;85.32;102755.53;3725760;37;17763;-64
2020/12/21 01:51:31;;;;;;;;;91.25;62.25;;;;;-3.05;85.50;102757.19;3725661;37;20279;-62
2020/12/21 01:53:59;;;;;;;;;96.25;68.25;;;;;-3.03;85.42;102756.25;3725952;37;17738;-62
2020/12/21 01:56:25;;;;;;;;;84.00;64.00;;;;;-3.00;85.61;102753.50;3725857;37;17758;-62
2020/12/21 01:58:53;;;;;;;;;86.75;62.75;;;;;-2.96;85.36;102756.09;3725937;37;20232;-62
2020/12/21 02:01:21;;;;;;;;;89.50;66.25;;;;;-2.98;85.51;102753.47;3725671;37;17748;-61
2020/12/21 02:03:48;;;;;;;;;86.75;65.50;;;;;-2.96;85.40;102746.34;3725703;37;17752;-61
2020/12/21 02:06:18;;;;;;;;;84.25;62.25;;;;;-2.94;85.65;102746.31;3725898;37;17750;-64
2020/12/21 02:08:44;;;;;;;;;83.50;61.50;;;;;-2.94;85.29;102755.13;3725719;38;17736;-63
2020/12/21 02:11:13;;;;;;;;;87.50;64.00;;;;;-2.91;85.79;102746.22;3725909;37;20225;-62
2020/12/21 02:13:42;;;;;;;;;77.25;59.25;;;;;-2.81;85.84;102735.31;3725567;37;20213;-61
2020/12/21 02:16:11;;;;;;;;;88.25;63.25;;;;;-2.64;85.79;102737.47;3725931;37;20210;-62
2020/12/21 02:18:37;;;;;;;;;92.50;64.50;;;;;-2.53;85.43;102734.47;3725903;38;20216;-61
2020/12/21 02:21:04;;;;;;;;;83.75;63.00;;;;;-2.42;85.73;102732.38;3725938;37;20216;-62
2020/12/21 02:23:31;;;;;;;;;81.75;63.75;;;;;-2.43;85.34;102731.50;3725497;38;20194;-60
2020/12/21 02:25:58;;;;;;;;;92.25;70.25;;;;;-2.43;85.18;102725.34;3725475;38;17736;-61
2020/12/21 02:28:26;;;;;;;;;89.00;66.00;;;;;-2.47;85.12;102729.84;3725710;38;17724;-61
2020/12/21 02:30:53;;;;;;;;;81.75;60.50;;;;;-2.49;85.20;102725.53;3726106;38;17720;-63
2020/12/21 02:33:19;;;;;;;;;88.75;65.00;;;;;-2.58;85.44;102718.72;3725970;38;17705;-62
2020/12/21 02:35:46;;;;;;;;;94.00;66.25;;;;;-2.39;85.80;102727.84;3725771;37;20189;-62
2020/12/21 02:38:13;;;;;;;;;87.75;62.00;;;;;-2.41;85.50;102726.16;3725627;37;17686;-62
2020/12/21 02:40:41;;;;;;;;;86.25;65.00;;;;;-2.50;86.09;102708.75;3725697;37;17974;-62
2020/12/21 02:43:09;;;;;;;;;91.00;65.00;;;;;-2.42;86.15;102730.59;3726077;37;17690;-62
2020/12/21 02:45:37;;;;;;;;;95.00;64.00;;;;;-2.55;86.51;102704.50;3725563;37;20208;-62
2020/12/21 02:48:04;;;;;;;;;86.75;67.00;;;;;-2.63;86.41;102683.56;3725578;38;17700;-62
2020/12/21 02:50:31;;;;;;;;;96.75;66.75;;;;;-2.43;86.12;102715.59;3725945;37;20197;-63
2020/12/21 02:52:57;;;;;;;;;84.00;62.00;;;;;-2.48;86.36;102714.00;3726020;37;17698;-63
2020/12/21 02:55:23;;;;;;;;;78.75;60.00;;;;;-2.64;86.24;102686.25;3726006;38;20171;-61
2020/12/21 02:57:51;;;;;;;;;90.25;65.00;;;;;-2.48;86.43;102703.41;3725797;37;20146;-64
2020/12/21 03:00:17;;;;;;;;;76.75;57.75;;;;;-2.45;86.26;102705.94;3725625;37;17688;-61
2020/12/21 03:02:44;;;;;;;;;79.00;57.25;;;;;-2.42;86.17;102704.06;3725938;38;20143;-62
2020/12/21 03:05:13;;;;;;;;;87.50;64.50;;;;;-2.51;86.64;102685.81;3725411;37;20151;-63
2020/12/21 03:07:39;;;;;;;;;82.00;62.25;;;;;-2.53;86.42;102698.22;3725600;38;20172;-62
2020/12/21 03:10:07;;;;;;;;;78.75;58.75;;;;;-2.58;86.46;102701.94;3725980;37;20136;-61
2020/12/21 03:12:39;;;;;;;;;90.50;60.75;;;;;-2.67;86.14;102697.81;3725588;37;20139;-62
2020/12/21 03:15:06;;;;;;;;;82.75;63.50;;;;;-2.65;86.52;102703.06;3726032;38;20140;-62
2020/12/21 03:17:33;;;;;;;;;82.00;59.25;;;;;-2.63;86.95;102704.75;3725953;37;20131;-62
2020/12/21 03:20:00;;;;;;;;;87.25;61.00;;;;;-2.73;86.69;102690.91;3725395;38;20396;-62
2020/12/21 03:22:26;;;;;;;;;82.50;58.50;;;;;-2.81;86.83;102694.72;3725515;38;20385;-61
2020/12/21 03:24:56;;;;;;;;;74.00;51.25;;;;;-2.78;87.42;102711.37;3725966;37;20122;-63
2020/12/21 03:27:22;;;;;;;;;79.25;58.00;;;;;-2.80;86.82;102701.75;3725930;38;20104;-62
2020/12/21 03:29:50;;;;;;;;;62.50;45.50;;;;;-2.79;87.14;102711.44;3726009;37;20114;-63
2020/12/21 03:32:17;;;;;;;;;75.75;57.25;;;;;-2.83;87.01;102680.63;3725705;37;20125;-63
2020/12/21 03:34:45;;;;;;;;;82.25;62.75;;;;;-2.71;86.98;102699.69;3725975;38;20120;-62
2020/12/21 03:37:23;;;;;;;;;85.25;63.00;;;;;-2.83;87.04;102684.16;3726210;38;20103;-63
2020/12/21 03:39:52;;;;;;;;;81.25;58.00;;;;;-2.64;87.06;102707.47;3727227;38;20117;-63
2020/12/21 03:42:19;;;;;;;;;79.75;60.50;;;;;-2.71;87.27;102710.28;3726261;37;20117;-63
2020/12/21 03:44:46;;;;;;;;;84.25;60.50;;;;;-2.63;86.82;102714.50;3725865;38;20230;-62
2020/12/21 03:47:12;;;;;;;;;80.75;56.25;;;;;-2.63;86.99;102702.09;3726134;38;20084;-63
2020/12/21 03:49:39;;;;;;;;;77.75;56.00;;;;;-2.84;87.05;102693.00;3726139;37;20115;-62
2020/12/21 03:52:05;;;;;;;;;79.00;60.50;;;;;-2.76;87.02;102717.50;3725825;37;20106;-64
2020/12/21 03:54:38;;;;;;;;;78.50;59.50;;;;;-3.08;87.15;102678.69;3726319;37;20104;-62
2020/12/21 03:57:05;;;;;;;;;84.25;63.00;;;;;-3.05;87.39;102681.25;3725742;38;17605;-62
2020/12/21 03:59:32;;;;;;;;;79.50;57.75;;;;;-2.80;87.01;102718.50;3725895;37;21092;-63
2020/12/21 04:02:00;;;;;;;;;85.75;61.75;;;;;-2.82;87.42;102711.50;3726005;37;21066;-62
2020/12/21 04:04:27;;;;;;;;;104.25;72.50;;;;;-2.77;87.39;102718.41;3725840;37;21076;-62
2020/12/21 04:06:53;;;;;;;;;95.75;65.00;;;;;-2.78;87.24;102718.47;3726351;38;18581;-61
2020/12/21 04:09:20;;;;;;;;;83.75;60.75;;;;;-2.79;87.16;102716.72;3726174;37;21080;-61
2020/12/21 04:11:50;;;;;;;;;63.25;46.75;;;;;-2.78;87.18;102719.34;3725948;38;21053;-62
2020/12/21 04:14:17;;;;;;;;;74.00;57.75;;;;;-2.83;87.48;102715.09;3726009;38;20073;-63
2020/12/21 04:16:43;;;;;;;;;81.25;62.25;;;;;-2.78;87.73;102721.13;3725765;38;21070;-63
2020/12/21 04:19:10;;;;;;;;;82.75;61.00;;;;;-2.74;87.87;102717.47;3725707;37;21065;-61
2020/12/21 04:21:37;;;;;;;;;76.75;55.25;;;;;-2.65;87.67;102727.78;3725610;38;21066;-65
2020/12/21 04:24:04;;;;;;;;;71.25;50.00;;;;;-2.60;87.63;102709.97;3726132;38;21049;-65
2020/12/21 04:26:31;;;;;;;;;79.25;58.25;;;;;-2.52;87.82;102718.53;3725539;37;21041;-64
2020/12/21 04:28:58;;;;;;;;;84.25;61.00;;;;;-2.61;87.26;102700.28;3725569;38;21109;-63
2020/12/21 04:31:25;;;;;;;;;42.25;41.25;;;;;-2.57;87.26;102719.56;3725665;38;21052;-62
2020/12/21 04:33:51;;;;;;;;;85.00;60.25;;;;;-2.71;87.62;102718.25;3725950;38;21023;-62
2020/12/21 04:36:17;;;;;;;;;87.75;64.25;;;;;-2.71;87.20;102710.28;3725891;37;21049;-62
2020/12/21 04:38:44;;;;;;;;;89.25;62.25;;;;;-2.69;87.63;102727.00;3725983;37;21020;-62
2020/12/21 04:41:11;;;;;;;;;83.00;59.25;;;;;-2.77;87.12;102726.38;3725879;38;21118;-59
2020/12/21 04:43:39;;;;;;;;;84.25;57.75;;;;;-2.85;87.65;102720.41;3725868;38;21045;-62
2020/12/21 04:46:07;;;;;;;;;85.75;62.25;;;;;-2.81;87.60;102714.13;3726304;38;21010;-61
2020/12/21 04:48:44;;;;;;;;;82.50;60.75;;;;;-2.83;87.80;102715.09;3725900;38;21040;-61
2020/12/21 04:51:14;;;;;;;;;37.25;11.25;;;;;-2.79;87.75;102719.38;3725979;37;21007;-62
2020/12/21 04:53:41;;;;;;;;;86.25;61.25;;;;;-2.87;87.70;102718.72;3725680;38;20985;-61
2020/12/21 04:56:07;;;;;;;;;86.75;63.25;;;;;-2.91;87.99;102717.06;3725975;37;21009;-61
2020/12/21 04:58:34;;;;;;;;;88.75;64.50;;;;;-2.83;87.69;102720.38;3726024;38;21017;-62
2020/12/21 05:01:01;;;;;;;;;95.00;70.00;;;;;-2.82;87.51;102714.16;3726124;37;20987;-60
2020/12/21 05:03:28;;;;;;;;;92.75;62.75;;;;;-2.85;88.00;102716.91;3725796;37;18531;-60
2020/12/21 05:05:54;;;;;;;;;93.50;59.50;;;;;-2.89;87.62;102716.12;3725766;38;18487;-63
2020/12/21 05:08:26;;;;;;;;;98.75;71.25;;;;;-2.97;87.70;102706.66;3725743;37;18495;-61
2020/12/21 05:11:04;;;;;;;;;87.00;64.50;;;;;-2.97;87.70;102712.81;3726100;37;18488;-64
2020/12/21 05:13:35;;;;;;;;;93.25;67.50;;;;;-3.15;87.79;102698.34;3726412;38;18489;-62
2020/12/21 05:16:04;;;;;;;;;100.75;71.75;;;;;-3.08;87.88;102715.78;3726330;37;18483;-62
2020/12/21 05:18:35;;;;;;;;;102.00;73.75;;;;;-3.19;87.83;102715.25;3726646;37;18498;-61
2020/12/21 05:21:06;;;;;;;;;93.25;68.25;;;;;-3.18;87.99;102705.50;3726000;37;18494;-62
2020/12/21 05:23:33;;;;;;;;;92.75;70.25;;;;;-3.18;88.06;102703.72;3726226;38;18500;-62
2020/12/21 05:26:04;;;;;;;;;96.50;66.25;;;;;-3.22;87.70;102694.13;3726214;37;18460;-62
2020/12/21 05:28:38;;;;;;;;;102.25;72.25;;;;;-3.29;87.89;102689.94;3726113;37;18461;-61
2020/12/21 05:31:08;;;;;;;;;103.50;67.75;;;;;-3.10;88.31;102707.00;3725965;37;18460;-58
2020/12/21 05:33:45;;;;;;;;;96.75;72.25;;;;;-3.04;88.11;102724.50;3726168;37;18472;-61
2020/12/21 05:36:14;;;;;;;;;92.75;68.50;;;;;-3.01;88.18;102727.06;3726081;37;18442;-62
2020/12/21 05:38:41;;;;;;;;;105.00;71.00;;;;;-3.22;88.10;102690.63;3725939;37;18467;-62
2020/12/21 05:41:26;;;;;;;;;100.00;71.75;;;;;-3.07;87.98;102714.00;3725998;37;18465;-61
2020/12/21 05:43:53;;;;;;;;;90.00;68.25;;;;;-3.09;87.86;102706.09;3726062;38;18482;-63
2020/12/21 05:46:24;;;;;;;;;101.75;69.75;;;;;-2.83;88.34;102733.62;3726102;38;18433;-61
2020/12/21 05:48:55;;;;;;;;;95.50;69.75;;;;;-3.02;88.57;102726.19;3726333;37;18434;-62
2020/12/21 05:51:28;;;;;;;;;93.50;67.50;;;;;-3.00;88.00;102732.31;3726041;38;18427;-61
2020/12/21 05:53:58;;;;;;;;;89.00;63.75;;;;;-3.06;88.19;102700.72;3726150;38;18522;-62
2020/12/21 05:56:27;;;;;;;;;89.00;67.50;;;;;-2.84;88.23;102730.09;3725796;37;18453;-62
2020/12/21 05:58:59;;;;;;;;;90.00;69.00;;;;;-3.00;87.84;102710.25;3725625;38;18435;-61
2020/12/21 06:01:26;;;;;;;;;86.25;61.75;;;;;-2.77;88.60;102725.50;3725962;38;18432;-60
2020/12/21 06:04:31;;;;;;;;;91.50;65.25;;;;;-2.69;88.27;102727.00;3726144;37;20942;-59
2020/12/21 06:07:03;;;;;;;;;80.50;61.50;;;;;-2.72;88.24;102728.88;3726032;38;18416;-62
2020/12/21 06:09:35;;;;;;;;;85.75;65.00;;;;;-2.81;88.37;102719.41;3726727;38;20928;-61
2020/12/21 06:12:02;;;;;;;;;96.25;70.00;;;;;-2.72;88.00;102740.34;3726301;37;20946;-62
2020/12/21 06:14:29;;;;;;;;;91.75;64.00;;;;;-2.80;88.59;102725.59;3726987;38;18437;-60
2020/12/21 06:16:56;;;;;;;;;89.00;65.25;;;;;-2.97;87.96;102696.94;3726353;37;20923;-61
2020/12/21 06:19:25;;;;;;;;;89.25;65.50;;;;;-2.74;88.20;102743.97;3726091;37;20930;-62
2020/12/21 06:21:55;;;;;;;;;80.25;56.75;;;;;-2.76;88.34;102741.34;3725886;38;20909;-61
2020/12/21 06:24:23;;;;;;;;;86.00;63.25;;;;;-2.69;88.28;102752.66;3726067;37;20909;-61
2020/12/21 06:26:51;;;;;;;;;81.25;59.50;;;;;-2.71;88.43;102754.47;3726077;37;20887;-60
2020/12/21 06:29:26;;;;;;;;;80.25;60.00;;;;;-2.92;88.33;102726.81;3726152;38;20897;-62
2020/12/21 06:32:03;;;;;;;;;82.50;60.75;;;;;-2.70;88.17;102759.72;3726187;38;20901;-62
2020/12/21 06:34:46;;;;;;;;;92.75;65.25;;;;;-2.56;88.36;102761.06;3726302;38;20885;-63
2020/12/21 06:37:16;;;;;;;;;94.00;63.25;;;;;-2.62;88.25;102758.63;3726377;38;20870;-61
2020/12/21 06:39:44;;;;;;;;;90.00;65.75;;;;;-2.59;88.33;102764.69;3725842;37;20884;-61
2020/12/21 06:42:21;;;;;;;;;83.50;61.50;;;;;-2.58;88.02;102763.78;3725492;37;20887;-62
2020/12/21 06:44:49;;;;;;;;;90.25;65.00;;;;;-2.60;88.34;102764.75;3726011;38;20876;-66
2020/12/21 06:47:16;;;;;;;;;89.00;66.00;;;;;-2.59;88.40;102769.13;3725509;37;20884;-60
2020/12/21 06:49:43;;;;;;;;;88.25;66.25;;;;;-2.78;87.89;102751.13;3725718;37;18388;-60
2020/12/21 06:52:10;;;;;;;;;95.50;70.25;;;;;-2.63;88.17;102772.81;3725867;38;20882;-63
2020/12/21 06:54:39;;;;;;;;;99.50;71.00;;;;;-2.73;87.96;102759.81;3725755;37;18375;-61
2020/12/21 06:57:06;;;;;;;;;101.75;72.75;;;;;-2.57;87.94;102778.75;3726138;37;18363;-62
2020/12/21 06:59:32;;;;;;;;;98.75;71.00;;;;;-2.47;88.16;102779.37;3726123;37;18365;-61
2020/12/21 07:01:58;;;;;;;;;95.50;68.50;;;;;-2.42;88.03;102780.09;3726014;37;18369;-62
2020/12/21 07:04:30;;;;;;;;;99.50;74.50;;;;;-2.40;87.77;102783.56;3725915;38;18364;-63
2020/12/21 07:07:06;;;;;;;;;98.00;69.25;;;;;-2.30;87.66;102798.28;3725161;37;18346;-61
2020/12/21 07:09:37;;;;;;;;;105.00;73.75;;;;;-2.27;87.71;102792.91;3725956;38;18350;-63
2020/12/21 07:12:12;;;;;;;;;94.50;72.25;;;;;-2.26;87.84;102799.94;3725953;38;18343;-62
2020/12/21 07:14:40;;;;;;;;;104.25;81.25;;;;;-2.28;87.20;102795.59;3725505;37;18368;-62
2020/12/21 07:17:15;;;;;;;;;107.25;82.50;;;;;-2.37;87.76;102773.75;3725624;38;18358;-59
2020/12/21 07:19:47;;;;;;;;;103.75;75.75;;;;;-2.20;87.39;102785.63;3725797;37;18339;-64
2020/12/21 07:22:15;;;;;;;;;120.00;95.25;;;;;-2.28;87.10;102792.94;3725741;37;18339;-63
2020/12/21 07:24:42;;;;;;;;;137.75;106.50;;;;;-2.34;87.24;102772.78;3725946;38;18344;-63
2020/12/21 07:27:14;;;;;;;;;110.25;82.75;;;;;-2.21;87.47;102773.28;3726259;38;18328;-64
2020/12/21 07:29:43;;;;;;;;;121.50;89.50;;;;;-2.07;87.35;102785.16;3725992;38;18339;-61
2020/12/21 07:32:10;;;;;;;;;124.00;96.50;;;;;-1.96;86.99;102782.19;3725720;38;18349;-63
2020/12/21 07:34:37;;;;;;;;;116.25;87.00;;;;;-2.07;86.87;102771.03;3725739;38;18346;-63
2020/12/21 07:37:10;;;;;;;;;120.50;98.75;;;;;-1.95;86.83;102775.09;3726250;37;18339;-62
2020/12/21 07:39:37;;;;;;;;;136.25;103.50;;;;;-1.87;86.75;102773.06;3726219;37;18308;-63
2020/12/21 07:42:08;;;;;;;;;134.00;110.50;;;;;-1.74;86.97;102769.09;3726372;38;18305;-63
2020/12/21 07:44:47;;;;;;;;;112.75;97.75;;;;;-1.97;86.67;102730.03;3726079;37;18303;-62
2020/12/21 07:47:38;;;;;;;;;134.75;109.50;;;;;-1.71;87.03;102756.59;3726349;37;18330;-62
2020/12/21 07:50:09;;;;;;;;;132.00;97.50;;;;;-1.57;86.49;102769.41;3726196;38;18325;-63
2020/12/21 07:52:37;;;;;;;;;119.50;96.75;;;;;-1.47;86.81;102754.00;3725814;37;18317;-62
2020/12/21 07:55:04;;;;;;;;;103.50;79.25;;;;;-1.27;86.38;102766.59;3725847;37;18306;-63
2020/12/21 07:57:30;;;;;;;;;118.75;97.75;;;;;-1.18;86.63;102760.97;3726040;37;18278;-61
2020/12/21 07:59:57;;;;;;;;;116.50;93.25;;;;;-1.17;86.06;102763.56;3726364;37;18291;-61
2020/12/21 08:02:27;;;;;;;;;102.75;82.75;;;;;-1.03;86.40;102761.25;3726158;37;18285;-65
2020/12/21 08:04:54;;;;;;;;;122.00;96.00;;;;;-0.92;86.27;102767.97;3726182;38;18296;-63
2020/12/21 08:07:29;;;;;;;;;115.75;97.00;;;;;-0.80;86.48;102764.88;3725720;38;18290;-62
2020/12/21 08:09:58;;;;;;;;;171.00;127.75;;;;;-0.62;86.34;102768.66;3726119;37;18298;-63
2020/12/21 08:12:34;;;;;;;;;140.00;104.50;;;;;-0.46;86.52;102772.44;3725680;37;18261;-62
2020/12/21 08:15:01;;;;;;;;;126.50;98.00;;;;;-0.44;85.63;102762.59;3726210;37;18285;-63
2020/12/21 08:17:33;;;;;;;;;135.00;102.50;;;;;-0.38;85.60;102755.25;3726158;37;18266;-62
2020/12/21 08:20:12;;;;;;;;;127.25;102.25;;;;;-0.23;85.75;102752.94;3726758;37;18273;-60
2020/12/21 08:22:42;;;;;;;;;124.50;96.25;;;;;-0.19;85.38;102743.91;3726350;37;18265;-61
2020/12/21 08:25:14;;;;;;;;;120.75;101.25;;;;;-0.17;85.45;102744.69;3725973;38;18264;-62
2020/12/21 08:27:52;;;;;;;;;127.00;95.75;;;;;-0.05;85.62;102739.75;3726225;38;18270;-62
2020/12/21 08:30:32;;;;;;;;;113.00;91.25;;;;;0.11;85.49;102741.78;3726004;37;18258;-60
2020/12/21 08:32:59;;;;;;;;;117.25;88.75;;;;;0.24;85.44;102735.88;3726229;37;18240;-62
2020/12/21 08:35:27;;;;;;;;;122.75;98.50;;;;;0.31;85.23;102731.16;3726220;38;18262;-64
2020/12/21 08:38:04;;;;;;;;;121.25;96.50;;;;;0.13;84.81;102679.53;3726230;38;18245;-63
2020/12/21 08:40:30;;;;;;;;;103.75;84.25;;;;;0.58;85.08;102729.09;3726437;38;18238;-64
2020/12/21 08:42:59;;;;;;;;;100.25;78.75;;;;;0.75;85.05;102731.03;3726872;37;18232;-65
2020/12/21 08:45:25;;;;;;;;;97.25;76.25;;;;;0.87;84.90;102728.72;3726595;37;18229;-65
2020/12/21 08:47:52;;;;;;;;;71.25;51.75;;;;;1.02;84.95;102729.81;3726376;37;18232;-63
2020/12/21 08:50:18;;;;;;;;;82.75;60.75;;;;;1.21;84.80;102721.81;3728593;37;21005;-65
2020/12/21 08:52:48;;;;;;;;;70.00;56.50;;;;;1.31;84.62;102726.69;3726954;37;20983;-64
2020/12/21 08:55:14;;;;;;;;;73.50;55.00;;;;;1.45;84.44;102715.38;3725680;38;21004;-63
2020/12/21 08:57:41;;;;;;;;;75.25;56.50;;;;;1.32;83.87;102674.19;3726123;38;20996;-66
2020/12/21 09:00:07;;;;;;;;;73.25;53.75;;;;;1.48;83.80;102704.56;3726158;38;20993;-64
2020/12/21 09:02:33;;;;;;;;;74.75;53.50;;;;;1.52;83.55;102700.78;3726371;37;20997;-64
2020/12/21 09:05:03;;;;;;;;;67.50;51.50;;;;;1.54;83.51;102701.59;3726115;37;20996;-64
2020/12/21 09:07:30;;;;;;;;;69.50;55.25;;;;;1.57;83.26;102701.41;3726202;38;20683;-66
2020/12/21 09:09:56;;;;;;;;;74.25;57.00;;;;;1.62;83.41;102682.50;3726289;37;20665;-64
2020/12/21 09:12:24;;;;;;;;;74.25;58.75;;;;;1.68;83.44;102660.87;3726327;38;20695;-66
2020/12/21 09:14:51;;;;;;;;;74.50;55.50;;;;;1.86;82.88;102685.81;3726098;38;20694;-65
2020/12/21 09:17:17;;;;;;;;;74.00;55.50;;;;;1.86;82.73;102681.31;3726138;37;20656;-66
2020/12/21 09:19:43;;;;;;;;;73.50;56.75;;;;;1.86;82.62;102678.66;3725693;37;20675;-65
2020/12/21 09:22:10;;;;;;;;;68.50;53.00;;;;;1.94;82.46;102673.81;3726182;38;20665;-66
2020/12/21 09:24:36;;;;;;;;;74.50;57.25;;;;;1.96;82.22;102665.72;3726173;38;20667;-64
2020/12/21 09:27:02;;;;;;;;;64.25;50.00;;;;;1.94;82.00;102662.25;3726074;37;20669;-67
2020/12/21 09:29:28;;;;;;;;;73.25;53.75;;;;;1.95;81.84;102659.50;3726101;38;20641;-64
2020/12/21 09:31:56;;;;;;;;;62.50;48.75;;;;;2.00;81.49;102669.97;3726159;38;20655;-63
2020/12/21 09:34:22;;;;;;;;;71.50;53.75;;;;;1.98;81.35;102672.72;3726191;37;20650;-65
2020/12/21 09:36:50;;;;;;;;;72.50;54.50;;;;;1.98;81.75;102663.84;3726262;37;20765;-63
2020/12/21 09:39:16;;;;;;;;;68.00;52.00;;;;;1.94;81.00;102662.25;3726084;37;20636;-64
2020/12/21 09:41:43;;;;;;;;;66.50;51.25;;;;;1.88;81.46;102641.19;3726006;37;20641;-64
2020/12/21 09:44:12;;;;;;;;;67.00;52.75;;;;;1.89;80.85;102638.44;3726101;37;20632;-63
2020/12/21 09:46:38;;;;;;;;;65.75;50.00;;;;;2.00;80.71;102661.94;3726076;38;20635;-65
2020/12/21 09:49:04;;;;;;;;;70.00;54.00;;;;;2.04;80.73;102668.00;3725808;37;20608;-64
2020/12/21 09:51:31;;;;;;;;;74.00;54.50;;;;;2.13;80.85;102663.03;3725649;37;20627;-65
2020/12/21 09:53:58;;;;;;;;;75.25;56.25;;;;;1.91;80.22;102639.25;3726111;38;20614;-64
2020/12/21 09:56:24;;;;;;;;;66.25;52.25;;;;;1.93;80.39;102642.69;3726117;38;20637;-64
2020/12/21 09:58:51;;;;;;;;;77.00;53.50;;;;;2.15;80.57;102668.31;3726184;37;20635;-64
2020/12/21 10:01:18;;;;;;;;;70.00;52.25;;;;;2.17;80.24;102655.72;3725991;37;20607;-67
2020/12/21 10:03:44;;;;;;;;;56.50;46.50;;;;;2.27;80.33;102663.19;3726145;38;20607;-66
2020/12/21 10:06:20;;;;;;;;;68.75;50.50;;;;;2.26;80.22;102642.78;3726193;37;20617;-63
2020/12/21 10:08:46;;;;;;;;;73.50;54.50;;;;;2.21;79.62;102643.94;3726198;37;20597;-66
2020/12/21 10:11:18;;;;;;;;;76.50;52.75;;;;;2.13;79.89;102625.63;3726162;38;20617;-64
2020/12/21 10:13:44;;;;;;;;;75.25;54.75;;;;;2.47;79.85;102654.16;3725792;38;20614;-62
2020/12/21 10:16:10;;;;;;;;;72.50;55.75;;;;;2.67;79.82;102658.44;3725878;37;20579;-64
2020/12/21 10:18:38;;;;;;;;;67.00;52.25;;;;;2.80;78.93;102643.47;3726342;38;20593;-66
2020/12/21 10:21:06;;;;;;;;;57.75;44.25;;;;;2.90;78.59;102639.34;3726121;37;20581;-65
2020/12/21 10:23:33;;;;;;;;;69.00;51.25;;;;;2.92;77.87;102633.94;3725952;37;20584;-65
2020/12/21 10:26:01;;;;;;;;;67.00;51.25;;;;;2.72;77.52;102594.88;3726149;38;20594;-67
2020/12/21 10:28:28;;;;;;;;;65.50;48.50;;;;;3.05;77.20;102634.13;3726367;37;20562;-66
2020/12/21 10:30:55;;;;;;;;;73.25;54.00;;;;;3.03;76.80;102636.03;3726417;37;20644;-66
2020/12/21 10:33:21;;;;;;;;;65.50;52.00;;;;;3.09;76.89;102633.87;3726093;38;20880;-64
2020/12/21 10:35:47;;;;;;;;;70.75;50.75;;;;;3.05;76.28;102631.44;3726182;37;20582;-64
2020/12/21 10:38:15;;;;;;;;;72.75;54.75;;;;;2.92;76.12;102631.25;3726505;37;20588;-64
2020/12/21 10:40:42;;;;;;;;;79.75;58.50;;;;;2.88;76.37;102635.03;3725796;37;20573;-65
2020/12/21 10:43:08;;;;;;;;;68.50;50.25;;;;;2.83;76.18;102627.25;3725502;38;20579;-63
2020/12/21 10:45:41;;;;;;;;;78.00;58.00;;;;;2.87;76.61;102622.63;3725767;37;20552;-64
2020/12/21 10:48:07;;;;;;;;;67.00;51.00;;;;;2.96;77.00;102622.97;3726461;37;20563;-63
2020/12/21 10:50:34;;;;;;;;;65.50;52.75;;;;;2.81;75.81;102607.75;3726172;38;20509;-65
2020/12/21 10:53:03;;;;;;;;;69.25;52.75;;;;;2.91;76.10;102619.69;3726167;38;20540;-64
2020/12/21 10:55:29;;;;;;;;;68.50;53.75;;;;;3.04;76.38;102616.34;3725562;37;20538;-63
2020/12/21 10:57:56;;;;;;;;;73.50;53.75;;;;;3.05;76.31;102613.59;3726019;37;20517;-65
2020/12/21 11:00:24;;;;;;;;;60.25;48.00;;;;;3.13;76.05;102619.34;3726248;38;20540;-63
2020/12/21 11:02:50;;;;;;;;;76.25;56.00;;;;;3.10;75.71;102608.84;3726203;38;20523;-65
2020/12/21 11:05:17;;;;;;;;;70.00;55.00;;;;;3.09;75.59;102615.16;3726066;37;20527;-64
2020/12/21 11:07:43;;;;;;;;;68.50;51.50;;;;;3.08;75.36;102612.56;3725737;37;20539;-64
2020/12/21 11:10:13;;;;;;;;;76.00;57.00;;;;;3.17;76.14;102610.22;3726415;38;20605;-64
2020/12/21 11:12:40;;;;;;;;;71.25;53.25;;;;;3.18;75.64;102606.59;3725725;38;20527;-65
2020/12/21 11:15:09;;;;;;;;;67.75;50.50;;;;;3.19;75.12;102602.09;3726131;37;20500;-64
2020/12/21 11:17:35;;;;;;;;;68.75;54.75;;;;;2.92;75.09;102577.75;3728041;38;20523;-70